^^
Saratoga-Weather Station Historical Data
Daily Summary for September 23, 2021 Units:  Metric    English   Both
Daily Weekly Monthly Yearly Custom
  High: Low: Average:
Temperature: 22.7 °C 7.3 °C 14.5 °C
Dew Point: 13.7 °C 6.7 °C 10.2 °C
Humidity: 97% 52% 78%
Wind Speed: 17.7km/h 0km/h 2.7km/h
Wind Gust: 19.3km/h - -
Wind- - SW
Pressure: 1024.4 hPa 1017.6 hPa -
Precipitation: 0.0 mm    
Historical Graphs
 
 
Tabular Data for September 23, 2021
Time Temperature Dew Point Pressure Wind Wind Speed Wind Gust Humidity Rainfall Rate (Hourly) solar
00:02 10.9 °C 9.5 °C 1024.4 hPa Calm     91% 0.0 mm 0 W/m2
00:07 10.8 °C 9.4 °C 1024.4 hPa SE 3.2 km/h 3.2 km/h 91% 0.0 mm 0 W/m2
00:12 10.8 °C 9.6 °C 1024.0 hPa Calm   1.6 km/h 92% 0.0 mm 0 W/m2
00:17 10.8 °C 9.6 °C 1024.4 hPa Calm     92% 0.0 mm 0 W/m2
00:22 10.8 °C 9.6 °C 1024.4 hPa Calm   1.6 km/h 92% 0.0 mm 0 W/m2
00:38 10.6 °C 9.4 °C 1024.4 hPa Calm     92% 0.0 mm 0 W/m2
00:43 10.6 °C 9.4 °C 1024.4 hPa Calm     92% 0.0 mm 0 W/m2
00:48 10.4 °C 9.2 °C 1024.4 hPa Calm     92% 0.0 mm 0 W/m2
00:53 10.4 °C 9.3 °C 1024.4 hPa Calm     93% 0.0 mm 0 W/m2
00:58 10.3 °C 9.2 °C 1024.4 hPa Calm     93% 0.0 mm 0 W/m2
01:03 10.3 °C 9.2 °C 1024.4 hPa Calm     93% 0.0 mm 0 W/m2
01:08 10.2 °C 9.1 °C 1024.0 hPa Calm     93% 0.0 mm 0 W/m2
01:25 10.1 °C 9 °C 1024.0 hPa Calm     93% 0.0 mm 0 W/m2
01:30 10.1 °C 9.2 °C 1024.0 hPa Calm     94% 0.0 mm 0 W/m2
01:35 10 °C 8.9 °C 1024.0 hPa Calm     93% 0.0 mm 0 W/m2
01:40 10 °C 9.1 °C 1024.0 hPa Calm     94% 0.0 mm 0 W/m2
01:45 9.9 °C 9 °C 1024.0 hPa Calm     94% 0.0 mm 0 W/m2
01:50 9.9 °C 9 °C 1024.0 hPa Calm     94% 0.0 mm 0 W/m2
01:55 9.9 °C 9 °C 1024.0 hPa Calm     94% 0.0 mm 0 W/m2
02:00 9.9 °C 9 °C 1024.0 hPa Calm     94% 0.0 mm 0 W/m2
02:05 9.8 °C 8.9 °C 1024.0 hPa Calm     94% 0.0 mm 0 W/m2
02:10 9.8 °C 8.9 °C 1023.7 hPa Calm     94% 0.0 mm 0 W/m2
02:15 9.8 °C 8.9 °C 1023.7 hPa Calm     94% 0.0 mm 0 W/m2
02:20 9.7 °C 8.8 °C 1023.7 hPa Calm     94% 0.0 mm 0 W/m2
02:25 9.6 °C 8.7 °C 1023.7 hPa Calm     94% 0.0 mm 0 W/m2
02:30 9.5 °C 8.6 °C 1023.7 hPa Calm     94% 0.0 mm 0 W/m2
02:35 9.4 °C 8.5 °C 1023.7 hPa Calm     94% 0.0 mm 0 W/m2
02:40 9.4 °C 8.5 °C 1023.7 hPa Calm     94% 0.0 mm 0 W/m2
02:45 9.3 °C 8.4 °C 1023.4 hPa Calm     94% 0.0 mm 0 W/m2
03:04 9.2 °C 8.3 °C 1023.4 hPa Calm     94% 0.0 mm 0 W/m2
03:09 9.2 °C 8.3 °C 1023.4 hPa Calm     94% 0.0 mm 0 W/m2
03:14 9.1 °C 8.2 °C 1023.4 hPa Calm     94% 0.0 mm 0 W/m2
03:19 9.1 °C 8.2 °C 1023.4 hPa Calm     94% 0.0 mm 0 W/m2
03:24 8.9 °C 8 °C 1023.0 hPa Calm     94% 0.0 mm 0 W/m2
03:29 8.9 °C 8 °C 1023.0 hPa Calm     94% 0.0 mm 0 W/m2
03:34 8.8 °C 8 °C 1022.7 hPa Calm     95% 0.0 mm 0 W/m2
03:39 8.9 °C 8.1 °C 1022.7 hPa Calm     95% 0.0 mm 0 W/m2
03:44 8.9 °C 8.1 °C 1022.7 hPa Calm     95% 0.0 mm 0 W/m2
03:49 8.9 °C 8.1 °C 1022.7 hPa Calm     95% 0.0 mm 0 W/m2
03:54 8.8 °C 8 °C 1022.7 hPa Calm     95% 0.0 mm 0 W/m2
03:59 8.8 °C 8 °C 1022.7 hPa Calm     95% 0.0 mm 0 W/m2
04:04 8.8 °C 8 °C 1022.7 hPa Calm     95% 0.0 mm 0 W/m2
04:09 8.8 °C 8 °C 1022.4 hPa Calm     95% 0.0 mm 0 W/m2
04:14 8.7 °C 7.9 °C 1022.4 hPa Calm     95% 0.0 mm 0 W/m2
04:19 8.7 °C 7.9 °C 1022.4 hPa Calm     95% 0.0 mm 0 W/m2
04:24 8.8 °C 8 °C 1022.4 hPa Calm     95% 0.0 mm 0 W/m2
04:29 8.8 °C 8 °C 1022.4 hPa Calm     95% 0.0 mm 0 W/m2
04:34 8.8 °C 8 °C 1022.4 hPa Calm     95% 0.0 mm 0 W/m2
04:39 8.8 °C 8 °C 1022.4 hPa Calm     95% 0.0 mm 0 W/m2
04:44 8.8 °C 8 °C 1022.0 hPa Calm     95% 0.0 mm 0 W/m2
04:49 8.8 °C 8.2 °C 1022.0 hPa Calm     96% 0.0 mm 0 W/m2
04:54 8.8 °C 8.2 °C 1022.0 hPa Calm     96% 0.0 mm 0 W/m2
04:59 8.9 °C 8.3 °C 1022.0 hPa Calm     96% 0.0 mm 0 W/m2
05:04 8.9 °C 8.3 °C 1022.0 hPa Calm     96% 0.0 mm 0 W/m2
05:10 8.8 °C 8.2 °C 1022.0 hPa Calm     96% 0.0 mm 0 W/m2
05:15 8.8 °C 8 °C 1021.7 hPa Calm     95% 0.0 mm 0 W/m2
05:20 8.7 °C 7.9 °C 1021.7 hPa Calm     95% 0.0 mm 0 W/m2
05:25 8.6 °C 7.8 °C 1021.7 hPa Calm     95% 0.0 mm 0 W/m2
05:30 8.5 °C 7.7 °C 1021.7 hPa Calm     95% 0.0 mm 0 W/m2
05:35 8.4 °C 7.6 °C 1021.3 hPa Calm     95% 0.0 mm 0 W/m2
05:40 8.3 °C 7.5 °C 1021.3 hPa Calm     95% 0.0 mm 0 W/m2
05:45 8.3 °C 7.5 °C 1021.3 hPa Calm     95% 0.0 mm 0 W/m2
05:50 8.2 °C 7.4 °C 1021.3 hPa Calm     95% 0.0 mm 0 W/m2
05:55 8.1 °C 7.3 °C 1021.3 hPa Calm     95% 0.0 mm 0 W/m2
06:00 8.1 °C 7.3 °C 1021.3 hPa Calm     95% 0.0 mm 0 W/m2
06:05 8 °C 7.2 °C 1021.3 hPa Calm     95% 0.0 mm 0 W/m2
06:10 7.9 °C 7.1 °C 1021.3 hPa Calm     95% 0.0 mm 0 W/m2
06:15 7.8 °C 7 °C 1021.3 hPa Calm     95% 0.0 mm 0 W/m2
06:20 7.8 °C 7 °C 1021.3 hPa Calm     95% 0.0 mm 0 W/m2
06:25 7.8 °C 7.2 °C 1021.3 hPa Calm     96% 0.0 mm 0 W/m2
06:30 7.8 °C 7.2 °C 1021.0 hPa Calm     96% 0.0 mm 0 W/m2
06:35 7.9 °C 7.3 °C 1021.0 hPa Calm     96% 0.0 mm 0 W/m2
06:40 7.9 °C 7.3 °C 1021.0 hPa Calm     96% 0.0 mm 0 W/m2
06:45 7.9 °C 7.3 °C 1021.0 hPa Calm     96% 0.0 mm 0 W/m2
06:50 7.8 °C 7.2 °C 1021.0 hPa Calm     96% 0.0 mm 0 W/m2
06:55 7.8 °C 7.2 °C 1021.0 hPa Calm     96% 0.0 mm 0 W/m2
07:00 7.7 °C 7.1 °C 1021.0 hPa Calm     96% 0.0 mm 0 W/m2
07:05 7.6 °C 7 °C 1021.0 hPa Calm     96% 0.0 mm 0 W/m2
07:10 7.6 °C 7 °C 1021.0 hPa Calm     96% 0.0 mm 0 W/m2
07:15 7.5 °C 6.9 °C 1021.0 hPa Calm     96% 0.0 mm 0 W/m2
07:20 7.5 °C 6.9 °C 1021.0 hPa Calm     96% 0.0 mm 0 W/m2
07:26 7.4 °C 6.8 °C 1021.3 hPa Calm     96% 0.0 mm 5 W/m2
07:31 7.4 °C 6.8 °C 1021.3 hPa Calm     96% 0.0 mm 7 W/m2
07:36 7.3 °C 6.7 °C 1021.3 hPa Calm     96% 0.0 mm 9 W/m2
07:41 7.4 °C 6.8 °C 1021.3 hPa Calm   1.6 km/h 96% 0.0 mm 11 W/m2
07:46 7.4 °C 6.8 °C 1021.3 hPa Calm     96% 0.0 mm 12 W/m2
07:51 7.5 °C 6.9 °C 1021.3 hPa Calm     96% 0.0 mm 14 W/m2
07:56 7.5 °C 6.9 °C 1021.3 hPa Calm     96% 0.0 mm 16 W/m2
08:01 7.6 °C 7 °C 1021.3 hPa Calm     96% 0.0 mm 16 W/m2
08:06 7.6 °C 7 °C 1021.3 hPa Calm     96% 0.0 mm 18 W/m2
08:11 7.7 °C 7.1 °C 1021.3 hPa Calm     96% 0.0 mm 19 W/m2
08:16 7.7 °C 7.1 °C 1021.3 hPa Calm     96% 0.0 mm 21 W/m2
08:21 7.8 °C 7.2 °C 1021.3 hPa Calm     96% 0.0 mm 23 W/m2
08:26 7.8 °C 7.2 °C 1021.3 hPa Calm     96% 0.0 mm 25 W/m2
08:31 8 °C 7.4 °C 1021.7 hPa Calm     96% 0.0 mm 26 W/m2
08:36 8.1 °C 7.5 °C 1021.7 hPa Calm     96% 0.0 mm 26 W/m2
08:41 8.2 °C 7.6 °C 1021.7 hPa Calm     96% 0.0 mm 28 W/m2
08:46 8.3 °C 7.9 °C 1021.3 hPa Calm     97% 0.0 mm 28 W/m2
08:51 8.4 °C 8 °C 1021.7 hPa Calm     97% 0.0 mm 30 W/m2
08:56 8.6 °C 8 °C 1021.7 hPa Calm     96% 0.0 mm 28 W/m2
09:01 8.7 °C 8.3 °C 1021.7 hPa Calm     97% 0.0 mm 30 W/m2
09:11 9 °C 8.5 °C 1021.7 hPa NE 1.4 km/h 3.2 km/h 97% 0.0 mm 202 W/m2
09:16 9.3 °C 8.8 °C 1021.7 hPa NE 1.4 km/h 3.2 km/h 97% 0.0 mm 218 W/m2
09:21 9.4 °C 8.9 °C 1021.7 hPa Calm   1.6 km/h 97% 0.0 mm 229 W/m2
09:26 9.7 °C 9.2 °C 1021.7 hPa Calm     97% 0.0 mm 241 W/m2
09:31 9.9 °C 9.4 °C 1021.7 hPa Calm     97% 0.0 mm 253 W/m2
09:36 10.3 °C 9.8 °C 1021.7 hPa Calm     97% 0.0 mm 264 W/m2
09:41 10.8 °C 10.3 °C 1021.7 hPa Calm     97% 0.0 mm 276 W/m2
09:46 11 °C 10.5 °C 1021.7 hPa ENE 1.4 km/h 4.8 km/h 97% 0.0 mm 292 W/m2
09:51 11.2 °C 10.7 °C 1021.7 hPa East 1.4 km/h 4.8 km/h 97% 0.0 mm 306 W/m2
09:56 11.4 °C 10.8 °C 1021.7 hPa ENE 1.4 km/h 3.2 km/h 96% 0.0 mm 320 W/m2
10:02 11.8 °C 11 °C 1021.7 hPa ENE 3.2 km/h 3.2 km/h 95% 0.0 mm 330 W/m2
10:07 12.3 °C 11.2 °C 1021.3 hPa ENE 3.2 km/h 3.2 km/h 93% 0.0 mm 345 W/m2
10:12 12.6 °C 11.2 °C 1021.3 hPa ESE 1.4 km/h 4.8 km/h 91% 0.0 mm 357 W/m2
10:17 12.8 °C 11 °C 1021.3 hPa Calm   4.8 km/h 89% 0.0 mm 373 W/m2
10:22 13.2 °C 11.3 °C 1021.3 hPa NE 4.7 km/h 4.8 km/h 88% 0.0 mm 388 W/m2
10:27 13.4 °C 11.3 °C 1021.3 hPa East 1.4 km/h 1.6 km/h 87% 0.0 mm 399 W/m2
10:32 13.7 °C 11.2 °C 1021.3 hPa ESE 1.4 km/h 3.2 km/h 85% 0.0 mm 415 W/m2
10:37 13.9 °C 11.2 °C 1021.0 hPa SE 3.2 km/h 4.8 km/h 84% 0.0 mm 429 W/m2
10:42 14.2 °C 11.5 °C 1021.0 hPa Calm   3.2 km/h 84% 0.0 mm 441 W/m2
10:47 14.3 °C 11.3 °C 1021.0 hPa East 3.2 km/h 3.2 km/h 82% 0.0 mm 452 W/m2
10:52 14.5 °C 11.5 °C 1021.0 hPa Calm   6.4 km/h 82% 0.0 mm 462 W/m2
10:57 14.7 °C 11.5 °C 1021.0 hPa ENE 1.4 km/h 3.2 km/h 81% 0.0 mm 475 W/m2
11:02 14.8 °C 11.6 °C 1021.0 hPa NE 3.2 km/h 6.4 km/h 81% 0.0 mm 480 W/m2
11:07 15 °C 11.6 °C 1021.0 hPa ENE 4.7 km/h 6.4 km/h 80% 0.0 mm 487 W/m2
11:12 15.2 °C 11.8 °C 1021.0 hPa Calm   1.6 km/h 80% 0.0 mm 499 W/m2
11:17 15.5 °C 12.1 °C 1021.0 hPa East 1.4 km/h 4.8 km/h 80% 0.0 mm 512 W/m2
11:22 15.8 °C 12 °C 1021.0 hPa NE 4.7 km/h 4.8 km/h 78% 0.0 mm 513 W/m2
11:27 15.8 °C 11.8 °C 1021.0 hPa Calm   3.2 km/h 77% 0.0 mm 527 W/m2
11:32 16.1 °C 12.3 °C 1021.0 hPa ENE 3.2 km/h 3.2 km/h 78% 0.0 mm 534 W/m2
11:37 16.4 °C 12.4 °C 1021.0 hPa ENE 1.4 km/h 6.4 km/h 77% 0.0 mm 547 W/m2
11:42 16.6 °C 12.4 °C 1021.0 hPa East 1.4 km/h 4.8 km/h 76% 0.0 mm 548 W/m2
11:47 16.9 °C 12.8 °C 1021.0 hPa East 1.4 km/h 1.6 km/h 77% 0.0 mm 555 W/m2
11:52 17.4 °C 12.9 °C 1021.0 hPa ESE 1.4 km/h 6.4 km/h 75% 0.0 mm 568 W/m2
11:57 17.8 °C 12.9 °C 1020.7 hPa East 6.4 km/h 6.4 km/h 73% 0.0 mm 573 W/m2
12:02 18.3 °C 13.4 °C 1020.7 hPa ENE 1.4 km/h 4.8 km/h 73% 0.0 mm 584 W/m2
12:07 18.7 °C 13.3 °C 1020.7 hPa East 6.4 km/h 6.4 km/h 71% 0.0 mm 592 W/m2
12:12 19.1 °C 13.7 °C 1020.7 hPa ESE 3.2 km/h 4.8 km/h 71% 0.0 mm 598 W/m2
12:17 19.4 °C 13.3 °C 1020.3 hPa East 3.2 km/h 4.8 km/h 68% 0.0 mm 608 W/m2
12:22 19.8 °C 13.5 °C 1020.3 hPa East 4.7 km/h 4.8 km/h 67% 0.0 mm 610 W/m2
12:27 19.9 °C 12.9 °C 1020.3 hPa WSW 3.2 km/h 6.4 km/h 64% 0.0 mm 624 W/m2
12:32 20.1 °C 12.8 °C 1020.3 hPa West 1.4 km/h 4.8 km/h 63% 0.0 mm 633 W/m2
12:37 20.1 °C 12.3 °C 1020.0 hPa NW 4.7 km/h 6.4 km/h 61% 0.0 mm 636 W/m2
12:42 20.1 °C 12.8 °C 1020.0 hPa Calm   3.2 km/h 63% 0.0 mm 643 W/m2
12:47 20.1 °C 12.3 °C 1020.0 hPa WNW 6.4 km/h 6.4 km/h 61% 0.0 mm 643 W/m2
12:52 20.1 °C 12.1 °C 1020.0 hPa NW 3.2 km/h 14.5 km/h 60% 0.0 mm 645 W/m2
12:57 20.2 °C 12.4 °C 1020.0 hPa WNW 1.4 km/h 9.7 km/h 61% 0.0 mm 647 W/m2
13:02 20.3 °C 12.5 °C 1019.6 hPa NW 3.2 km/h 14.5 km/h 61% 0.0 mm 650 W/m2
13:07 20.3 °C 12.8 °C 1019.6 hPa WSW 3.2 km/h 6.4 km/h 62% 0.0 mm 656 W/m2
13:12 20.4 °C 12.4 °C 1019.6 hPa WSW 4.7 km/h 11.3 km/h 60% 0.0 mm 659 W/m2
13:17 20.6 °C 12.6 °C 1019.6 hPa WNW 3.2 km/h 6.4 km/h 60% 0.0 mm 661 W/m2
13:22 20.6 °C 12.6 °C 1019.6 hPa West 6.4 km/h 6.4 km/h 60% 0.0 mm 659 W/m2
13:27 20.6 °C 12.3 °C 1019.3 hPa South 1.4 km/h 11.3 km/h 59% 0.0 mm 663 W/m2
13:32 20.7 °C 12.4 °C 1019.3 hPa West 1.4 km/h 6.4 km/h 59% 0.0 mm 663 W/m2
13:37 20.8 °C 12.2 °C 1019.3 hPa WNW 4.7 km/h 14.5 km/h 58% 0.0 mm 663 W/m2
13:43 20.7 °C 12.1 °C 1019.3 hPa NW 1.4 km/h 6.4 km/h 58% 0.0 mm 663 W/m2
13:48 20.8 °C 12 °C 1019.3 hPa WNW 11.1 km/h 14.5 km/h 57% 0.0 mm 661 W/m2
13:53 20.9 °C 12.1 °C 1019.3 hPa West 4.7 km/h 9.7 km/h 57% 0.0 mm 663 W/m2
13:58 21 °C 11.9 °C 1019.3 hPa WNW 4.7 km/h 11.3 km/h 56% 0.0 mm 656 W/m2
14:03 21.1 °C 12.2 °C 1019.3 hPa WSW 6.4 km/h 6.4 km/h 57% 0.0 mm 656 W/m2
14:08 21.3 °C 11.9 °C 1019.3 hPa WNW 4.7 km/h 11.3 km/h 55% 0.0 mm 657 W/m2
14:13 21.3 °C 12.2 °C 1019.3 hPa West 6.4 km/h 6.4 km/h 56% 0.0 mm 652 W/m2
14:18 21.4 °C 12.8 °C 1019.3 hPa Calm   4.8 km/h 58% 0.0 mm 649 W/m2
14:23 21.7 °C 12 °C 1019.0 hPa West 9.7 km/h 19.3 km/h 54% 0.0 mm 649 W/m2
14:28 21.7 °C 12 °C 1019.0 hPa WNW 4.7 km/h 9.7 km/h 54% 0.0 mm 643 W/m2
14:33 21.8 °C 12.1 °C 1019.0 hPa West 6.4 km/h 19.3 km/h 54% 0.0 mm 640 W/m2
14:38 21.8 °C 11.8 °C 1019.0 hPa WNW 1.4 km/h 9.7 km/h 53% 0.0 mm 635 W/m2
14:43 22.1 °C 12.1 °C 1019.0 hPa NW 4.7 km/h 16.1 km/h 53% 0.0 mm 629 W/m2
14:48 22.1 °C 12.4 °C 1019.0 hPa WNW 4.7 km/h 11.3 km/h 54% 0.0 mm 621 W/m2
14:53 22.2 °C 12.2 °C 1019.0 hPa WNW 6.4 km/h 16.1 km/h 53% 0.0 mm 615 W/m2
14:58 22.1 °C 12.4 °C 1019.0 hPa West 4.7 km/h 12.9 km/h 54% 0.0 mm 608 W/m2
15:03 22.2 °C 12.7 °C 1019.0 hPa East 1.4 km/h 9.7 km/h 55% 0.0 mm 603 W/m2
15:08 22.3 °C 12.8 °C 1019.0 hPa NW 4.7 km/h 6.4 km/h 55% 0.0 mm 596 W/m2
15:13 22.4 °C 12.6 °C 1019.0 hPa NW 3.2 km/h 6.4 km/h 54% 0.0 mm 591 W/m2
15:18 22.5 °C 12.7 °C 1019.0 hPa WSW 4.7 km/h 12.9 km/h 54% 0.0 mm 584 W/m2
15:23 22.4 °C 12.6 °C 1018.6 hPa NNW 6.4 km/h 11.3 km/h 54% 0.0 mm 578 W/m2
15:28 22.5 °C 12.2 °C 1018.6 hPa West 6.4 km/h 11.3 km/h 52% 0.0 mm 571 W/m2
15:33 22.7 °C 12.3 °C 1018.6 hPa SSW 3.2 km/h 6.4 km/h 52% 0.0 mm 559 W/m2
15:38 22.6 °C 12.2 °C 1018.6 hPa WNW 11.1 km/h 14.5 km/h 52% 0.0 mm 559 W/m2
15:43 22.6 °C 12.8 °C 1018.6 hPa WNW 6.4 km/h 6.4 km/h 54% 0.0 mm 548 W/m2
15:48 22.7 °C 12.9 °C 1018.6 hPa SW 9.7 km/h 9.7 km/h 54% 0.0 mm 541 W/m2
15:53 22.7 °C 12.6 °C 1018.6 hPa West 9.7 km/h 14.5 km/h 53% 0.0 mm 533 W/m2
15:58 22.6 °C 12.8 °C 1018.3 hPa WNW 7.9 km/h 12.9 km/h 54% 0.0 mm 519 W/m2
16:03 22.6 °C 12.8 °C 1018.3 hPa WSW 7.9 km/h 14.5 km/h 54% 0.0 mm 512 W/m2
16:08 22.5 °C 12.7 °C 1018.3 hPa WNW 3.2 km/h 6.4 km/h 54% 0.0 mm 503 W/m2
16:13 22.6 °C 12.5 °C 1018.3 hPa NW 13 km/h 14.5 km/h 53% 0.0 mm 496 W/m2
16:18 22.4 °C 12.6 °C 1018.3 hPa WNW 11.1 km/h 14.5 km/h 54% 0.0 mm 485 W/m2
16:23 22.2 °C 12.2 °C 1018.3 hPa West 9.7 km/h 12.9 km/h 53% 0.0 mm 475 W/m2
16:28 22.2 °C 12.4 °C 1018.3 hPa NW 11.1 km/h 11.3 km/h 54% 0.0 mm 462 W/m2
16:33 22.2 °C 12.4 °C 1018.3 hPa West 9.7 km/h 14.5 km/h 54% 0.0 mm 448 W/m2
16:38 22.1 °C 12.1 °C 1018.3 hPa WNW 17.7 km/h 17.7 km/h 53% 0.0 mm 425 W/m2
16:43 22.1 °C 12.4 °C 1018.0 hPa West 9.7 km/h 16.1 km/h 54% 0.0 mm 376 W/m2
16:48 22.1 °C 12.1 °C 1018.0 hPa WNW 13 km/h 16.1 km/h 53% 0.0 mm 380 W/m2
16:53 21.9 °C 11.9 °C 1018.0 hPa WNW 11.1 km/h 12.9 km/h 53% 0.0 mm 399 W/m2
16:58 21.9 °C 11.9 °C 1018.0 hPa West 16.3 km/h 16.1 km/h 53% 0.0 mm 388 W/m2
17:03 21.8 °C 11.8 °C 1018.0 hPa West 6.4 km/h 16.1 km/h 53% 0.0 mm 376 W/m2
17:08 21.8 °C 11.8 °C 1018.0 hPa South 7.9 km/h 14.5 km/h 53% 0.0 mm 362 W/m2
17:13 21.7 °C 12 °C 1018.0 hPa NNW 6.4 km/h 14.5 km/h 54% 0.0 mm 350 W/m2
17:18 21.7 °C 12 °C 1018.0 hPa West 3.2 km/h 9.7 km/h 54% 0.0 mm 334 W/m2
17:23 21.7 °C 11.7 °C 1018.0 hPa SW 6.4 km/h 16.1 km/h 53% 0.0 mm 323 W/m2
17:28 21.7 °C 12 °C 1018.0 hPa West 6.4 km/h 12.9 km/h 54% 0.0 mm 311 W/m2
17:33 21.6 °C 11.9 °C 1017.6 hPa SSW 9.7 km/h 12.9 km/h 54% 0.0 mm 288 W/m2
17:38 21.6 °C 12.2 °C 1017.6 hPa SW 6.4 km/h 11.3 km/h 55% 0.0 mm 279 W/m2
17:43 21.6 °C 12.2 °C 1017.6 hPa West 4.7 km/h 9.7 km/h 55% 0.0 mm 271 W/m2
17:48 21.6 °C 12.2 °C 1017.6 hPa West 6.4 km/h 12.9 km/h 55% 0.0 mm 257 W/m2
17:53 21.6 °C 12.4 °C 1017.6 hPa West 6.4 km/h 8 km/h 56% 0.0 mm 243 W/m2
17:58 21.4 °C 12.3 °C 1017.6 hPa WSW 13 km/h 14.5 km/h 56% 0.0 mm 229 W/m2
18:03 21.3 °C 12.4 °C 1017.6 hPa West 4.7 km/h 6.4 km/h 57% 0.0 mm 132 W/m2
18:08 21.1 °C 12.5 °C 1017.6 hPa WSW 14.5 km/h 14.5 km/h 58% 0.0 mm 162 W/m2
18:13 21 °C 11.9 °C 1017.6 hPa West 4.7 km/h 11.3 km/h 56% 0.0 mm 185 W/m2
18:18 20.9 °C 11.8 °C 1017.6 hPa West 6.4 km/h 9.7 km/h 56% 0.0 mm 169 W/m2
18:23 20.7 °C 11.6 °C 1017.6 hPa West 3.2 km/h 9.7 km/h 56% 0.0 mm 155 W/m2
18:28 20.5 °C 11.7 °C 1017.6 hPa WSW 4.7 km/h 11.3 km/h 57% 0.0 mm 32 W/m2
18:33 20.2 °C 11.7 °C 1018.0 hPa WNW 4.7 km/h 4.8 km/h 58% 0.0 mm 30 W/m2
18:38 19.9 °C 11.6 °C 1018.0 hPa West 4.7 km/h 4.8 km/h 59% 0.0 mm 26 W/m2
18:43 19.6 °C 11.6 °C 1018.0 hPa WSW 6.4 km/h 6.4 km/h 60% 0.0 mm 25 W/m2
18:48 19.3 °C 11.6 °C 1018.0 hPa West 4.7 km/h 9.7 km/h 61% 0.0 mm 25 W/m2
18:53 19.2 °C 11.2 °C 1018.0 hPa WSW 7.9 km/h 14.5 km/h 60% 0.0 mm 23 W/m2
18:58 19.1 °C 11.4 °C 1018.0 hPa WSW 1.4 km/h 6.4 km/h 61% 0.0 mm 21 W/m2
19:03 18.9 °C 11.2 °C 1018.0 hPa West 6.4 km/h 11.3 km/h 61% 0.0 mm 21 W/m2
19:08 18.7 °C 11.3 °C 1018.0 hPa WNW 4.7 km/h 14.5 km/h 62% 0.0 mm 19 W/m2
19:13 18.6 °C 11.2 °C 1018.0 hPa West 1.4 km/h 9.7 km/h 62% 0.0 mm 16 W/m2
19:18 18.4 °C 11.2 °C 1018.0 hPa WNW 4.7 km/h 8 km/h 63% 0.0 mm 12 W/m2
19:23 18.3 °C 11.1 °C 1018.0 hPa WSW 6.4 km/h 6.4 km/h 63% 0.0 mm 9 W/m2
19:28 18.2 °C 11.3 °C 1018.0 hPa West 6.4 km/h 6.4 km/h 64% 0.0 mm 5 W/m2
19:33 18 °C 11.3 °C 1018.3 hPa WSW 3.2 km/h 12.9 km/h 65% 0.0 mm 0 W/m2
19:38 17.9 °C 11.2 °C 1018.0 hPa NW 3.2 km/h 8 km/h 65% 0.0 mm 5 W/m2
19:43 17.7 °C 11.3 °C 1018.0 hPa WNW 3.2 km/h 12.9 km/h 66% 0.0 mm 0 W/m2
19:49 17.6 °C 11.4 °C 1018.3 hPa West 3.2 km/h 6.4 km/h 67% 0.0 mm 0 W/m2
19:54 17.6 °C 11.4 °C 1018.3 hPa West 4.7 km/h 6.4 km/h 67% 0.0 mm 0 W/m2
Juneau County Weather
Compliments of Weather Underground - 2 mb